Airfield :
LOGIN :

Register | Disclaimer

   EN    FR    IT 

 










Legend :    VFR   Marginal VFR   IFR   Intensive IFR   Very Intensive IFR
Visi :
Ceiling :
>= 8 km
>= 3000ft
5 to 8 km
1000 to 3000 ft
1500m to 5 km
500 to 1000 ft
800 to 1500m
200 to 500 ft
< 800m
< 200 ft
Symbols :   Thunderstorms  Fog  Heavy snow  Heavy precipitations  Wind > 20 kt
SIGMETs :     Misc.  Thunderstorms  Icing  Turbulence  Mountain Waves  Volcanic Ashes






- Airport Elevation : 170 ft
- IATA code : BGO


ENBR - Bergen , Flesland

CURRENT METAR :
  • 230420Z 04003KT 9999 SCT035 BKN070 05/01 Q1016 RMK WIND 1200FT 34013KT

EXPIRED METARs :
  • 230350Z 01008KT 9999 FEW036 BKN057 06/01 Q1015 RMK WIND 1200FT 36011KT
  • 230320Z 36009KT 310V010 9999 FEW027 SCT039 BKN051 06/01 Q1015 RMK WIND 1200FT 34016KT
  • 230250Z 35009KT 9999 FEW016 SCT040 BKN051 06/01 Q1015 RMK WIND 1200FT 35016KT
  • 230220Z 35010G21KT 9999 FEW015 SCT040 BKN051 06/M00 Q1015 RMK WIND 1200FT 34016KT
  • 230150Z 35008KT 9999 -SHRA FEW020 SCT036 BKN060 06/02 Q1014 RMK WIND 1200FT 33020KT

TAF TAF ENBR
Valid from the 23 at 00:00 until the 24 at 00:00 UTC


2300/2324 34008KT 9999 -SHRA FEW020TCU SCT040
TEMPO 2300/2303 SHRA BKN020CB
BECMG 2309/2311 15010KT
BECMG 2315/2317 16020KT
BECMG 2321/2324 BKN012



MET'MAP, your aeronautical weather chart ! - Copyright ORBIFLY December 2007 - Disclaimer

ORBIFLY MET'MAP TEAM :

Programming & Development : Alexandra Zaïnal
Concept & original design : Baudouin d'Aumeries
Assistance for programming : Marc-Olivier Méhu
Technical & hardware support : Manuel Goepfert

Contact : metmap@orbifly.com




SOURCES & CREDITS :

   NOAA